Overview Statistics Trail Chart Weather Telemetry Raw packets
 

This is the latest recevied weather packets stored in our database for station/object EFIV. If no packets are shown the sender has not sent any weather packets the latest 10 day(s).

<< 1 2 3 4 5 6 7 >>
Time Temp. Humidity Pressure Rain* Wind** Luminosity Snow
1788216274 12.78° C 93% 1006.2 hPa - - - -
1788215074 12.78° C 93% 1006.2 hPa - - - -
1788213874 12.78° C 92% 1006.1 hPa - - - -
1788212673 12.78° C 93% 1006 hPa - - - -
1788211474 12.78° C 95% 1006 hPa - - - -
1788210275 13.33° C 90% 1006 hPa - - - -
1787831050 11.67° C 51% 1027.9 hPa - - - -
1787829857 11.11° C 51% 1028.1 hPa - - - -
1787828647 11.11° C 52% 1028.2 hPa - - - -
1787827242 10.56° C 53% 1028.3 hPa - - - -
1787826247 10° C 53% 1028.3 hPa - - - -
1787825046 10.56° C 53% 1028.3 hPa - - - -
1787823850 10° C 55% 1028.3 hPa - - - -
1787822648 9.44° C 56% 1028.4 hPa - - - -
1787821446 9.44° C 58% 1028.5 hPa - - - -
1787820249 9.44° C 57% 1028.6 hPa - - - -
1787818838 8.89° C 58% 1028.7 hPa - - - -
1787817848 8.33° C 62% 1028.8 hPa - - - -
1787816648 8.33° C 62% 1028.9 hPa - - - -
1787815447 7.78° C 64% 1028.9 hPa - - - -
1787814248 7.22° C 68% 1029.1 hPa - - - -
1787813049 7.78° C 66% 1029 hPa - - - -
1787811848 6.67° C 71% 1029.1 hPa - - - -
1787810647 5.56° C 74% 1029.3 hPa - - - -
1787809450 5° C 78% 1029.4 hPa - - - -

* Rain since midnight (hover to see other rain measurements)
** Current wind speed in m/s (hover to see current wind gust speed)